Time;durP1;ratioP1;P1;durP2;ratioP2;P2;SDS_P1;SDS_P2;PMS_P1;PMS_P2;Temp;Humidity;BMP_temperature;BMP_pressure;BME280_temperature;BME280_humidity;BME280_pressure;Samples;Min_cycle;Max_cycle;Signal;HPM_P1;HPM_P2
2023/12/27 00:00:48;;;;;;;8.25;1.30;;;3.10;99.90;;;;;;5097129;27;20115;-67
2023/12/27 00:03:14;;;;;;;8.30;1.55;;;3.10;99.90;;;;;;5101887;27;20161;-67
2023/12/27 00:05:40;;;;;;;9.02;1.40;;;3.10;99.90;;;;;;5131184;27;20042;-67
2023/12/27 00:08:05;;;;;;;11.45;1.73;;;3.10;99.90;;;;;;5100827;27;20028;-67
2023/12/27 00:10:31;;;;;;;6.68;1.50;;;3.10;99.90;;;;;;5101100;27;20489;-67
2023/12/27 00:12:56;;;;;;;11.95;2.25;;;3.00;99.90;;;;;;5100677;27;20032;-67
2023/12/27 00:15:22;;;;;;;14.85;2.13;;;3.00;99.90;;;;;;5102374;28;20640;-67
2023/12/27 00:17:48;;;;;;;11.07;1.77;;;3.10;99.90;;;;;;5099725;27;20040;-67
2023/12/27 00:20:13;;;;;;;8.05;1.80;;;3.10;99.90;;;;;;5099961;28;20119;-67
2023/12/27 00:22:40;;;;;;;8.10;1.90;;;3.10;99.90;;;;;;5097335;27;20074;-67
2023/12/27 00:25:06;;;;;;;10.00;1.98;;;3.00;99.90;;;;;;5100255;27;20473;-67
2023/12/27 00:27:32;;;;;;;11.13;1.33;;;3.00;99.90;;;;;;5132650;27;20092;-67
2023/12/27 00:29:58;;;;;;;11.63;1.50;;;2.90;99.90;;;;;;5098998;27;20044;-67
2023/12/27 00:32:23;;;;;;;10.95;1.38;;;2.90;99.90;;;;;;5100559;27;20058;-67
2023/12/27 00:34:49;;;;;;;9.15;1.50;;;2.90;99.90;;;;;;5098469;27;20061;-67
2023/12/27 00:37:15;;;;;;;10.82;2.58;;;3.70;99.90;;;;;;5098120;27;20088;-67
2023/12/27 00:39:41;;;;;;;8.10;1.60;;;2.90;99.90;;;;;;5100209;27;20458;-67
2023/12/27 00:42:08;;;;;;;8.88;2.10;;;2.80;99.90;;;;;;5100545;28;20071;-67
2023/12/27 00:44:33;;;;;;;8.57;1.23;;;2.80;99.90;;;;;;5088556;28;20036;-67
2023/12/27 00:46:59;;;;;;;12.05;2.22;;;2.90;99.90;;;;;;5099495;27;20407;-66
2023/12/27 00:49:24;;;;;;;15.02;1.65;;;2.80;99.90;;;;;;5099579;27;20172;-67
2023/12/27 00:51:50;;;;;;;8.70;1.38;;;2.80;99.90;;;;;;5100318;27;20393;-67
2023/12/27 00:54:16;;;;;;;10.88;1.88;;;2.70;99.90;;;;;;5098265;27;20043;-67
2023/12/27 00:56:41;;;;;;;9.65;1.98;;;2.80;99.90;;;;;;5097551;27;20042;-67
2023/12/27 00:59:07;;;;;;;6.20;1.10;;;2.80;99.90;;;;;;5130265;27;20942;-67
2023/12/27 01:01:33;;;;;;;8.40;1.30;;;2.80;99.90;;;;;;5099265;27;20552;-67
2023/12/27 01:03:58;;;;;;;10.65;2.05;;;2.70;99.90;;;;;;5100312;27;21796;-67
2023/12/27 01:06:24;;;;;;;8.25;1.38;;;2.70;99.90;;;;;;5097492;28;20050;-66
2023/12/27 01:08:50;;;;;;;6.03;1.10;;;2.60;99.90;;;;;;5131784;27;20039;-67
2023/12/27 01:11:16;;;;;;;8.05;1.80;;;2.50;99.90;;;;;;5099969;28;20063;-67
2023/12/27 01:13:42;;;;;;;6.78;1.30;;;2.40;99.90;;;;;;5133506;27;20090;-67
2023/12/27 01:16:08;;;;;;;8.43;1.20;;;2.30;99.90;;;;;;5101040;27;20406;-67
2023/12/27 01:18:33;;;;;;;3.55;0.75;;;2.30;99.90;;;;;;5099317;28;20081;-67
2023/12/27 01:20:59;;;;;;;10.25;1.90;;;2.30;99.90;;;;;;5096293;27;20045;-67
2023/12/27 01:23:25;;;;;;;12.35;2.15;;;2.30;99.90;;;;;;5115674;27;21054;-67
2023/12/27 01:25:51;;;;;;;16.45;2.05;;;2.40;99.90;;;;;;5101990;28;20495;-67
2023/12/27 01:28:16;;;;;;;15.75;1.90;;;2.30;99.90;;;;;;5096038;27;20131;-67
2023/12/27 01:30:42;;;;;;;13.85;2.20;;;2.30;99.90;;;;;;5098633;27;20040;-67
2023/12/27 01:33:08;;;;;;;9.82;1.42;;;2.30;99.90;;;;;;5130855;27;20474;-67
2023/12/27 01:35:33;;;;;;;4.70;1.38;;;2.20;99.90;;;;;;5100635;28;20043;-67
2023/12/27 01:37:59;;;;;;;7.15;1.70;;;2.20;99.90;;;;;;5098598;27;20094;-67
2023/12/27 01:40:25;;;;;;;8.85;1.52;;;2.20;99.90;;;;;;5085761;28;20043;-67
2023/12/27 01:42:50;;;;;;;9.55;2.40;;;2.20;99.90;;;;;;5131805;27;20040;-67
2023/12/27 01:45:16;;;;;;;9.35;2.53;;;2.20;99.90;;;;;;5099418;28;20074;-67
2023/12/27 01:47:42;;;;;;;12.00;3.78;;;2.30;99.90;;;;;;5099685;28;20035;-67
2023/12/27 01:50:09;;;;;;;9.45;1.98;;;2.30;99.90;;;;;;5132142;27;20044;-67
2023/12/27 01:52:42;;;;;;;8.75;2.08;;;2.30;99.90;;;;;;5130670;27;20474;-67
2023/12/27 01:55:09;;;;;;;8.63;2.35;;;2.30;99.90;;;;;;5116132;27;20043;-67
2023/12/27 01:57:38;;;;;;;11.20;1.95;;;2.30;99.90;;;;;;5100080;28;20040;-67
2023/12/27 02:00:09;;;;;;;9.25;1.92;;;2.20;99.90;;;;;;5101549;28;20049;-67
2023/12/27 02:02:37;;;;;;;11.75;2.70;;;2.20;99.90;;;;;;5097363;28;20047;-67
2023/12/27 02:05:04;;;;;;;12.52;2.67;;;2.00;99.90;;;;;;5096298;28;20042;-67
2023/12/27 02:07:30;;;;;;;6.95;2.10;;;2.10;99.90;;;;;;5097633;28;20508;-66
2023/12/27 02:09:56;;;;;;;6.95;2.13;;;2.10;99.90;;;;;;5099009;28;20043;-67
2023/12/27 02:12:29;;;;;;;6.68;1.48;;;2.00;99.90;;;;;;5098144;28;20044;-67
2023/12/27 02:14:55;;;;;;;8.43;2.08;;;1.90;99.90;;;;;;5098971;28;20071;-67
2023/12/27 02:17:22;;;;;;;8.25;2.20;;;2.00;99.90;;;;;;5095287;28;20067;-67
2023/12/27 02:19:49;;;;;;;8.23;1.95;;;2.00;99.90;;;;;;5099810;28;20040;-67
2023/12/27 02:22:19;;;;;;;10.18;3.13;;;1.90;99.90;;;;;;5131074;27;20457;-67
2023/12/27 02:24:47;;;;;;;9.45;2.72;;;1.90;99.90;;;;;;5102353;28;20503;-67
2023/12/27 02:27:13;;;;;;;10.73;2.40;;;1.90;99.90;;;;;;5132627;27;20488;-67
2023/12/27 02:29:38;;;;;;;22.08;2.42;;;1.90;99.90;;;;;;5098475;28;20108;-67
2023/12/27 02:32:04;;;;;;;6.93;2.40;;;1.90;99.90;;;;;;5098719;28;20110;-67
2023/12/27 02:34:30;;;;;;;8.00;2.40;;;1.90;99.90;;;;;;5100150;28;20035;-67
2023/12/27 02:36:56;;;;;;;7.57;2.40;;;2.00;99.90;;;;;;5098503;28;20036;-67
2023/12/27 02:39:21;;;;;;;7.70;2.63;;;1.90;99.90;;;;;;5095869;28;20043;-67
2023/12/27 02:41:47;;;;;;;13.10;2.70;;;1.80;99.90;;;;;;5098592;28;20039;-67
2023/12/27 02:44:13;;;;;;;10.57;3.20;;;1.80;99.90;;;;;;5083076;27;20096;-67
2023/12/27 02:46:38;;;;;;;6.22;2.85;;;1.80;99.90;;;;;;5101128;27;20044;-67
2023/12/27 02:49:04;;;;;;;10.77;3.50;;;1.80;99.90;;;;;;5102972;27;20047;-67
2023/12/27 02:51:30;;;;;;;8.27;2.45;;;1.80;99.90;;;;;;5107320;27;20040;-67
2023/12/27 02:53:55;;;;;;;17.23;3.28;;;1.80;99.90;;;;;;5121271;27;20127;-67
2023/12/27 02:56:21;;;;;;;10.15;3.60;;;1.90;99.90;;;;;;5135928;27;20044;-67
2023/12/27 02:58:47;;;;;;;9.60;3.40;;;1.90;99.90;;;;;;5104294;27;20101;-67
2023/12/27 03:01:12;;;;;;;14.15;3.13;;;1.90;99.90;;;;;;5100946;27;20049;-67
2023/12/27 03:03:39;;;;;;;8.25;2.92;;;1.90;99.90;;;;;;5120481;27;20101;-67
2023/12/27 03:06:05;;;;;;;8.77;3.53;;;1.80;99.90;;;;;;5090168;28;20027;-67
2023/12/27 03:08:31;;;;;;;12.48;3.20;;;1.80;99.90;;;;;;5100527;27;20044;-67
2023/12/27 03:10:57;;;;;;;6.70;2.58;;;1.90;99.90;;;;;;5105848;27;20791;-67
2023/12/27 03:13:22;;;;;;;13.10;3.35;;;1.90;99.90;;;;;;5099173;27;20048;-67
2023/12/27 03:15:48;;;;;;;9.20;2.92;;;1.90;99.90;;;;;;5102892;27;20047;-67
2023/12/27 03:18:14;;;;;;;12.07;3.17;;;1.90;99.90;;;;;;5099915;27;20078;-67
2023/12/27 03:20:40;;;;;;;12.13;3.35;;;1.90;99.90;;;;;;5136589;27;20164;-67
2023/12/27 03:23:05;;;;;;;10.13;2.90;;;1.90;99.90;;;;;;5134079;27;20072;-67
2023/12/27 03:25:31;;;;;;;8.38;3.35;;;1.90;99.90;;;;;;5134073;27;20393;-67
2023/12/27 03:27:57;;;;;;;6.00;2.72;;;2.00;99.90;;;;;;5132367;27;20043;-67
2023/12/27 03:30:22;;;;;;;5.53;2.65;;;2.00;99.90;;;;;;5132601;27;20052;-67
2023/12/27 03:32:48;;;;;;;8.65;3.35;;;1.90;99.90;;;;;;5136257;27;20490;-67
2023/12/27 03:35:13;;;;;;;9.10;4.05;;;2.00;99.90;;;;;;5104344;27;20047;-67
2023/12/27 03:37:39;;;;;;;12.68;3.90;;;2.00;99.90;;;;;;5102275;27;20039;-67
2023/12/27 03:40:06;;;;;;;11.80;3.20;;;2.10;99.90;;;;;;5100139;28;20036;-67
2023/12/27 03:42:31;;;;;;;10.00;3.13;;;2.10;99.90;;;;;;5101744;27;20429;-67
2023/12/27 03:44:57;;;;;;;12.20;3.50;;;2.10;99.90;;;;;;5099586;27;20081;-67
2023/12/27 03:47:22;;;;;;;12.90;3.53;;;2.10;99.90;;;;;;5101326;27;20047;-66
2023/12/27 03:49:48;;;;;;;15.68;4.28;;;2.00;99.90;;;;;;5133824;27;20047;-67
2023/12/27 03:52:14;;;;;;;9.05;3.35;;;2.00;99.90;;;;;;5100752;27;20493;-67
2023/12/27 03:54:40;;;;;;;11.38;3.10;;;1.90;99.90;;;;;;5098435;27;20088;-67
2023/12/27 03:57:06;;;;;;;11.32;3.10;;;1.90;99.90;;;;;;5098413;28;20043;-67
2023/12/27 03:59:31;;;;;;;6.10;2.38;;;1.90;99.90;;;;;;5094718;28;20031;-67
2023/12/27 04:01:57;;;;;;;10.43;2.90;;;1.80;99.90;;;;;;5099498;28;20028;-67
2023/12/27 04:04:23;;;;;;;7.72;2.58;;;1.80;99.90;;;;;;5103567;27;20048;-67
2023/12/27 04:06:49;;;;;;;9.95;3.05;;;1.80;99.90;;;;;;5099478;27;20036;-67
2023/12/27 04:09:14;;;;;;;12.95;2.70;;;1.70;99.90;;;;;;5100918;28;20556;-67
2023/12/27 04:11:44;;;;;;;13.32;2.95;;;1.60;99.90;;;;;;5104708;27;20046;-67
2023/12/27 04:14:10;;;;;;;6.03;2.63;;;1.70;99.90;;;;;;5100107;27;20393;-67
2023/12/27 04:16:36;;;;;;;7.78;2.25;;;1.60;99.90;;;;;;5100914;27;20570;-67
2023/12/27 04:19:02;;;;;;;6.93;2.75;;;1.60;99.90;;;;;;5099922;27;20067;-68
2023/12/27 04:21:27;;;;;;;9.57;2.55;;;1.60;99.90;;;;;;5101111;27;20118;-67
2023/12/27 04:23:53;;;;;;;7.47;2.70;;;1.70;99.90;;;;;;5097829;27;20524;-67
2023/12/27 04:26:19;;;;;;;6.40;2.13;;;1.70;99.90;;;;;;5134713;27;20054;-67
2023/12/27 04:28:44;;;;;;;11.75;3.50;;;1.70;99.90;;;;;;5133683;27;20048;-67
2023/12/27 04:31:10;;;;;;;11.07;2.63;;;1.80;99.90;;;;;;5097730;27;20561;-67
2023/12/27 04:33:35;;;;;;;7.05;2.20;;;1.80;99.90;;;;;;5102814;27;20093;-67
2023/12/27 04:36:01;;;;;;;8.23;2.08;;;1.70;99.90;;;;;;5101807;27;20042;-67
2023/12/27 04:38:27;;;;;;;11.50;3.03;;;1.80;99.90;;;;;;5101103;27;20481;-67
2023/12/27 04:40:54;;;;;;;11.48;3.53;;;1.80;99.90;;;;;;5132561;27;20048;-67
2023/12/27 04:43:20;;;;;;;7.40;3.25;;;1.70;99.90;;;;;;5100063;27;20036;-67
2023/12/27 04:45:45;;;;;;;8.45;3.20;;;1.80;99.90;;;;;;5100729;27;20047;-67
2023/12/27 04:48:11;;;;;;;9.15;3.70;;;1.80;99.90;;;;;;5098860;27;20035;-67
2023/12/27 04:50:37;;;;;;;8.73;2.90;;;1.90;99.90;;;;;;5132933;27;20055;-67
2023/12/27 04:53:02;;;;;;;10.45;3.67;;;1.90;99.90;;;;;;5102962;27;20117;-67
2023/12/27 04:55:28;;;;;;;12.88;4.15;;;1.90;99.90;;;;;;5136663;27;20043;-67
2023/12/27 04:57:54;;;;;;;12.85;4.07;;;2.00;99.90;;;;;;5130562;27;20263;-67
2023/12/27 05:00:22;;;;;;;13.10;4.40;;;2.00;99.90;;;;;;5094767;28;20132;-67
2023/12/27 05:02:48;;;;;;;11.52;4.75;;;2.10;99.90;;;;;;5134527;27;21032;-67
2023/12/27 05:05:14;;;;;;;10.65;3.85;;;2.10;99.90;;;;;;5101686;27;20097;-67
2023/12/27 05:07:39;;;;;;;14.77;4.90;;;2.10;99.90;;;;;;5104523;27;20512;-67
2023/12/27 05:10:05;;;;;;;9.82;3.80;;;2.20;99.90;;;;;;5098496;27;20048;-67
2023/12/27 05:12:31;;;;;;;16.05;4.28;;;2.20;99.90;;;;;;5100643;27;20035;-67
2023/12/27 05:14:56;;;;;;;8.43;4.22;;;2.20;99.90;;;;;;5135677;27;20040;-67
2023/12/27 05:17:22;;;;;;;11.77;4.53;;;2.20;99.90;;;;;;5096978;28;20043;-67
2023/12/27 05:19:48;;;;;;;14.20;4.88;;;2.20;99.90;;;;;;5133520;27;20047;-67
2023/12/27 05:22:14;;;;;;;13.15;4.70;;;2.30;99.90;;;;;;5099470;27;20043;-67
2023/12/27 05:24:42;;;;;;;16.80;4.60;;;2.20;99.90;;;;;;5096847;28;20032;-67
2023/12/27 05:27:07;;;;;;;14.35;4.53;;;2.30;99.90;;;;;;5098609;27;20047;-67
2023/12/27 05:29:34;;;;;;;11.05;4.70;;;2.30;99.90;;;;;;5102816;28;20042;-67
2023/12/27 05:32:00;;;;;;;10.32;4.43;;;2.30;99.90;;;;;;5101380;28;20028;-67
2023/12/27 05:34:27;;;;;;;12.55;4.32;;;2.30;99.90;;;;;;5098434;28;20122;-67
2023/12/27 05:36:53;;;;;;;8.27;4.10;;;2.20;99.90;;;;;;5129452;27;20054;-68
2023/12/27 05:39:19;;;;;;;10.95;4.50;;;2.10;99.90;;;;;;5098677;27;20044;-67
2023/12/27 05:41:44;;;;;;;11.02;4.95;;;2.20;99.90;;;;;;5099000;28;20542;-67
2023/12/27 05:44:10;;;;;;;10.18;5.57;;;2.20;99.90;;;;;;5114784;27;20039;-67
2023/12/27 05:46:36;;;;;;;14.75;5.80;;;2.30;99.90;;;;;;5095404;28;20054;-67
2023/12/27 05:49:01;;;;;;;16.48;5.88;;;2.40;99.90;;;;;;5096643;28;20043;-67
2023/12/27 05:51:28;;;;;;;14.73;6.13;;;2.40;99.90;;;;;;5099165;27;20997;-67
2023/12/27 05:53:54;;;;;;;13.48;6.22;;;2.40;99.90;;;;;;5097728;28;20048;-67
2023/12/27 05:56:19;;;;;;;15.90;5.43;;;2.50;99.90;;;;;;5133304;27;20062;-67
2023/12/27 05:58:45;;;;;;;14.82;6.18;;;2.60;99.90;;;;;;5097394;28;20161;-67
2023/12/27 06:01:11;;;;;;;16.90;5.60;;;2.60;99.90;;;;;;5099157;28;20032;-67
2023/12/27 06:03:36;;;;;;;11.45;5.65;;;2.60;99.90;;;;;;5131350;27;20752;-67
2023/12/27 06:06:02;;;;;;;17.85;6.18;;;2.70;99.90;;;;;;5130436;27;20032;-67
2023/12/27 06:08:28;;;;;;;15.82;6.47;;;2.70;99.90;;;;;;5131246;27;20495;-67
2023/12/27 06:10:54;;;;;;;12.27;6.50;;;2.70;99.90;;;;;;5098103;28;20047;-67
2023/12/27 06:13:19;;;;;;;9.07;5.95;;;2.70;99.90;;;;;;5100617;28;20050;-67
2023/12/27 06:15:45;;;;;;;10.00;6.18;;;2.70;99.90;;;;;;5098248;28;20047;-67
2023/12/27 06:18:10;;;;;;;12.73;7.05;;;2.70;99.90;;;;;;5104355;27;20085;-67
2023/12/27 06:20:36;;;;;;;19.08;7.35;;;2.70;99.90;;;;;;5135429;27;20068;-67
2023/12/27 06:23:02;;;;;;;20.55;8.45;;;2.70;99.90;;;;;;5102172;27;20371;-67
2023/12/27 06:25:27;;;;;;;15.60;7.13;;;2.70;99.90;;;;;;5103968;27;20043;-67
2023/12/27 06:27:54;;;;;;;16.65;8.20;;;2.70;99.90;;;;;;5104333;27;20043;-67
2023/12/27 06:30:19;;;;;;;11.93;7.10;;;2.70;99.90;;;;;;5102776;28;20500;-67
2023/12/27 06:32:45;;;;;;;16.92;8.45;;;2.80;99.90;;;;;;5101371;27;20075;-67
2023/12/27 06:35:11;;;;;;;17.38;8.15;;;2.80;99.90;;;;;;5100997;28;20054;-67
2023/12/27 06:37:36;;;;;;;19.60;8.10;;;2.80;99.90;;;;;;5106742;27;20859;-67
2023/12/27 06:40:02;;;;;;;16.75;7.18;;;2.80;99.90;;;;;;5104969;27;20113;-67
2023/12/27 06:42:28;;;;;;;13.70;7.65;;;2.80;99.90;;;;;;5103982;27;20055;-67
2023/12/27 06:44:54;;;;;;;9.88;6.18;;;2.80;99.90;;;;;;5104630;27;20036;-67
2023/12/27 06:47:20;;;;;;;10.77;7.45;;;2.90;99.90;;;;;;5101617;27;20199;-67
2023/12/27 06:49:47;;;;;;;13.35;7.70;;;2.90;99.90;;;;;;5099726;27;20040;-67
2023/12/27 06:52:13;;;;;;;13.20;6.63;;;3.00;99.90;;;;;;5101684;27;20047;-67
2023/12/27 06:54:39;;;;;;;15.32;7.63;;;2.90;99.90;;;;;;5105842;27;20031;-68
2023/12/27 06:57:05;;;;;;;12.77;6.35;;;3.00;99.90;;;;;;5102963;27;20036;-67
2023/12/27 06:59:30;;;;;;;15.38;6.95;;;3.00;99.90;;;;;;5101732;27;20125;-67
2023/12/27 07:01:56;;;;;;;18.40;6.97;;;3.10;99.90;;;;;;5095704;27;20082;-68
2023/12/27 07:04:22;;;;;;;15.65;7.00;;;3.00;99.90;;;;;;5101547;28;20040;-68
2023/12/27 07:06:48;;;;;;;16.75;7.53;;;3.10;99.90;;;;;;5100327;27;20066;-68
2023/12/27 07:09:15;;;;;;;14.75;7.07;;;3.10;99.90;;;;;;5101989;28;20044;-67
2023/12/27 07:11:40;;;;;;;16.45;7.35;;;3.20;99.90;;;;;;5104567;27;20075;-67
2023/12/27 07:14:07;;;;;;;19.17;7.38;;;3.20;99.90;;;;;;5099256;27;20814;-68
2023/12/27 07:16:33;;;;;;;19.13;6.55;;;3.30;99.90;;;;;;5100053;27;20048;-68
2023/12/27 07:18:59;;;;;;;17.33;6.50;;;3.20;99.90;;;;;;5098366;27;20103;-67
2023/12/27 07:21:25;;;;;;;17.02;6.05;;;3.30;99.90;;;;;;5102586;27;20451;-68
2023/12/27 07:23:50;;;;;;;21.58;6.18;;;3.40;99.90;;;;;;5100724;28;20035;-67
2023/12/27 07:26:17;;;;;;;11.45;5.40;;;3.40;99.90;;;;;;5100732;27;20035;-68
2023/12/27 07:28:43;;;;;;;11.57;6.18;;;3.40;99.90;;;;;;5132898;27;20068;-68
2023/12/27 07:31:08;;;;;;;19.58;6.65;;;3.50;99.90;;;;;;5101359;27;20071;-68
2023/12/27 07:33:37;;;;;;;16.23;6.43;;;3.60;99.90;;;;;;5101761;28;20132;-68
2023/12/27 07:36:03;;;;;;;16.05;6.15;;;3.60;99.90;;;;;;5106470;27;20809;-68
2023/12/27 07:38:29;;;;;;;20.90;6.75;;;3.60;99.90;;;;;;5101873;27;20043;-68
2023/12/27 07:40:56;;;;;;;17.23;6.43;;;3.70;99.90;;;;;;5101549;27;20044;-68
2023/12/27 07:43:22;;;;;;;14.10;5.60;;;3.70;99.90;;;;;;5100696;27;20224;-68
2023/12/27 07:45:48;;;;;;;18.63;5.60;;;3.80;99.90;;;;;;5099475;27;20035;-68
2023/12/27 07:48:14;;;;;;;14.63;5.60;;;3.80;99.90;;;;;;5099171;27;20708;-68
2023/12/27 07:50:40;;;;;;;22.55;5.90;;;3.90;99.90;;;;;;5099696;27;20040;-68
2023/12/27 07:53:06;;;;;;;19.67;5.75;;;3.90;99.90;;;;;;5104355;27;20036;-68
2023/12/27 07:55:32;;;;;;;14.73;4.95;;;3.90;99.90;;;;;;5133269;27;20036;-68
2023/12/27 07:57:58;;;;;;;15.98;5.30;;;4.00;99.90;;;;;;5137730;27;20050;-68
2023/12/27 08:00:23;;;;;;;18.73;5.25;;;4.10;99.90;;;;;;5102593;27;20099;-68
2023/12/27 08:02:49;;;;;;;10.77;5.10;;;4.10;99.90;;;;;;5132100;27;20100;-68
2023/12/27 08:05:18;;;;;;;15.38;4.95;;;4.20;99.90;;;;;;5135047;27;20036;-68
2023/12/27 08:07:45;;;;;;;17.58;5.22;;;4.20;99.90;;;;;;5098390;27;20052;-68
2023/12/27 08:10:10;;;;;;;10.88;5.07;;;4.20;99.90;;;;;;5099816;27;20048;-68
2023/12/27 08:12:36;;;;;;;14.50;4.85;;;4.30;99.90;;;;;;5098082;27;20509;-68
2023/12/27 08:15:02;;;;;;;11.40;4.78;;;4.30;99.90;;;;;;5101653;28;20104;-68
2023/12/27 08:17:28;;;;;;;16.17;4.35;;;4.30;99.90;;;;;;5104805;27;20048;-68
2023/12/27 08:19:53;;;;;;;13.13;4.78;;;4.40;99.90;;;;;;5101428;28;20042;-68
2023/12/27 08:22:20;;;;;;;12.20;4.95;;;4.50;99.90;;;;;;5100376;28;20386;-68
2023/12/27 08:24:46;;;;;;;12.93;4.53;;;4.50;99.90;;;;;;5105900;28;20118;-68
2023/12/27 08:27:12;;;;;;;12.07;4.30;;;4.50;99.90;;;;;;5102600;28;20591;-68
2023/12/27 08:29:38;;;;;;;13.25;4.70;;;4.50;99.90;;;;;;5091932;28;20036;-68
2023/12/27 08:32:04;;;;;;;10.35;4.22;;;4.50;99.90;;;;;;5102913;27;20052;-68
2023/12/27 08:34:30;;;;;;;14.05;4.53;;;4.50;99.90;;;;;;5101975;28;20248;-68
2023/12/27 08:36:56;;;;;;;16.17;5.18;;;4.60;99.90;;;;;;5102020;27;20540;-68
2023/12/27 08:39:21;;;;;;;13.07;4.65;;;4.60;99.90;;;;;;5102245;28;20127;-68
2023/12/27 08:41:47;;;;;;;13.77;4.72;;;4.70;99.90;;;;;;5102385;27;20119;-68
2023/12/27 08:44:12;;;;;;;14.18;4.72;;;4.70;99.90;;;;;;5102140;27;20470;-68
2023/12/27 08:46:39;;;;;;;14.75;4.57;;;4.70;99.90;;;;;;5101193;27;20047;-68
2023/12/27 08:49:05;;;;;;;13.00;4.25;;;4.70;99.90;;;;;;5103291;28;20355;-68
2023/12/27 08:51:31;;;;;;;12.45;4.95;;;4.70;99.90;;;;;;5100992;27;20052;-68
2023/12/27 08:53:56;;;;;;;11.10;4.68;;;4.70;99.90;;;;;;5102945;27;20040;-68
2023/12/27 08:56:22;;;;;;;9.15;4.35;;;4.80;99.90;;;;;;5100309;27;20500;-68
2023/12/27 08:58:48;;;;;;;15.90;4.53;;;4.70;99.90;;;;;;5104573;27;20126;-68
2023/12/27 09:01:13;;;;;;;12.68;4.95;;;4.80;99.90;;;;;;5101482;27;20031;-68
2023/12/27 09:03:40;;;;;;;11.48;5.72;;;4.90;99.90;;;;;;5103857;27;20088;-68
2023/12/27 09:06:07;;;;;;;17.08;4.88;;;4.90;99.90;;;;;;5102993;28;20028;-68
2023/12/27 09:08:36;;;;;;;13.55;5.50;;;4.90;99.90;;;;;;5098643;28;20036;-68
2023/12/27 09:11:03;;;;;;;14.88;4.78;;;4.90;99.90;;;;;;5102448;28;20486;-68
2023/12/27 09:13:29;;;;;;;10.98;4.75;;;4.90;99.90;;;;;;5099002;28;20097;-68
2023/12/27 09:15:55;;;;;;;11.10;5.68;;;5.00;99.90;;;;;;5100377;27;20040;-68
2023/12/27 09:18:21;;;;;;;11.38;4.72;;;5.00;99.90;;;;;;5101359;27;20134;-68
2023/12/27 09:20:47;;;;;;;10.90;4.68;;;5.00;99.90;;;;;;5132386;27;20121;-68
2023/12/27 09:23:13;;;;;;;18.45;6.93;;;5.00;99.90;;;;;;5118087;27;20087;-68
2023/12/27 09:25:40;;;;;;;14.98;6.00;;;5.00;99.90;;;;;;5098668;28;20203;-68
2023/12/27 09:28:06;;;;;;;13.32;5.03;;;5.00;99.90;;;;;;5096270;28;20046;-68
2023/12/27 09:30:31;;;;;;;11.73;6.35;;;5.10;99.90;;;;;;5099907;28;20063;-68
2023/12/27 09:32:57;;;;;;;10.13;5.78;;;5.10;99.90;;;;;;5100033;28;20046;-68
2023/12/27 09:35:23;;;;;;;14.52;6.13;;;5.10;99.90;;;;;;5103813;27;20825;-68
2023/12/27 09:37:48;;;;;;;18.13;6.93;;;5.10;99.90;;;;;;5101873;27;20142;-68
2023/12/27 09:40:14;;;;;;;14.05;6.70;;;5.20;99.90;;;;;;5085781;28;20038;-68
2023/12/27 09:42:41;;;;;;;15.93;6.78;;;5.10;99.90;;;;;;5098734;27;20039;-68
2023/12/27 09:45:11;;;;;;;17.90;6.70;;;5.10;99.90;;;;;;5102724;28;20043;-68
2023/12/27 09:47:39;;;;;;;15.73;7.15;;;5.20;99.90;;;;;;5099085;28;20117;-68
2023/12/27 09:50:06;;;;;;;14.95;6.65;;;5.20;99.90;;;;;;5098064;28;20079;-68
2023/12/27 09:52:36;;;;;;;12.40;6.88;;;5.30;99.90;;;;;;5098806;28;20119;-68
2023/12/27 09:55:02;;;;;;;16.95;7.43;;;5.40;99.90;;;;;;5100853;28;20046;-68
2023/12/27 09:57:29;;;;;;;17.55;7.40;;;5.30;99.90;;;;;;5101651;28;20054;-68
2023/12/27 09:59:56;;;;;;;12.25;6.82;;;5.40;99.90;;;;;;5132342;27;20044;-68
2023/12/27 10:02:28;;;;;;;10.50;7.13;;;5.40;99.90;;;;;;5133182;27;20071;-68
2023/12/27 10:05:21;;;;;;;18.05;7.28;;;5.40;99.90;;;;;;5098956;28;20560;-68
2023/12/27 10:07:48;;;;;;;13.18;6.63;;;5.50;99.90;;;;;;5114014;28;20051;-68
2023/12/27 10:10:14;;;;;;;12.50;5.88;;;5.50;99.90;;;;;;5098288;28;20043;-68
2023/12/27 10:12:41;;;;;;;15.90;6.78;;;5.50;99.90;;;;;;5098204;28;20090;-68
2023/12/27 10:15:12;;;;;;;17.73;7.38;;;5.50;99.90;;;;;;5136121;27;20044;-68
2023/12/27 10:17:38;;;;;;;13.00;5.95;;;5.50;99.90;;;;;;5131949;27;20043;-68
2023/12/27 10:20:06;;;;;;;18.27;6.88;;;5.50;99.90;;;;;;5099746;28;20496;-68
2023/12/27 10:22:32;;;;;;;14.07;7.00;;;5.60;99.90;;;;;;5135525;27;20413;-68
2023/12/27 10:24:59;;;;;;;13.25;6.57;;;5.60;99.90;;;;;;5103356;28;20043;-68
2023/12/27 10:27:30;;;;;;;16.00;7.45;;;5.50;99.90;;;;;;5135463;27;20093;-69
2023/12/27 10:29:56;;;;;;;18.02;6.78;;;5.60;99.90;;;;;;5129257;27;20040;-69
2023/12/27 10:32:22;;;;;;;16.52;6.80;;;5.60;99.90;;;;;;5095611;27;20136;-68
2023/12/27 10:34:49;;;;;;;16.80;7.45;;;5.50;99.90;;;;;;5132081;27;20512;-68
2023/12/27 10:37:16;;;;;;;9.38;6.50;;;5.60;99.90;;;;;;5130743;27;20040;-68
2023/12/27 10:39:44;;;;;;;15.65;7.22;;;5.60;99.90;;;;;;5098258;27;20101;-69
2023/12/27 10:42:17;;;;;;;14.05;6.80;;;5.50;99.90;;;;;;5097798;28;20032;-69
2023/12/27 10:44:46;;;;;;;17.98;7.50;;;5.50;99.90;;;;;;5097830;27;20039;-69
2023/12/27 10:47:17;;;;;;;18.83;7.35;;;5.50;99.90;;;;;;5132250;27;20040;-68
2023/12/27 10:49:46;;;;;;;14.23;7.07;;;5.60;99.90;;;;;;5098752;28;20052;-69
2023/12/27 10:52:13;;;;;;;11.82;7.00;;;5.60;99.90;;;;;;5131649;27;20040;-68
2023/12/27 10:54:45;;;;;;;14.05;7.30;;;5.50;99.90;;;;;;5097822;28;20072;-68
2023/12/27 10:57:15;;;;;;;19.73;7.32;;;5.60;99.90;;;;;;5099716;28;20028;-69
2023/12/27 10:59:42;;;;;;;12.65;7.05;;;5.50;99.90;;;;;;5128739;27;20047;-69
2023/12/27 11:02:09;;;;;;;21.58;8.02;;;5.60;99.90;;;;;;5098623;28;20066;-69
2023/12/27 11:04:39;;;;;;;15.32;7.80;;;5.50;99.90;;;;;;5104157;27;20137;-69
2023/12/27 11:07:06;;;;;;;17.15;8.00;;;5.50;99.90;;;;;;5114391;27;20040;-68
2023/12/27 11:09:34;;;;;;;17.42;8.13;;;5.50;99.90;;;;;;5131277;27;20875;-69
2023/12/27 11:12:01;;;;;;;20.20;8.45;;;5.60;99.90;;;;;;5102313;27;20063;-69
2023/12/27 11:14:28;;;;;;;13.32;7.53;;;5.60;99.90;;;;;;5099868;28;20054;-69
2023/12/27 11:16:55;;;;;;;19.30;8.93;;;5.60;99.90;;;;;;5100400;28;20066;-69
2023/12/27 11:19:25;;;;;;;13.98;7.78;;;5.60;99.90;;;;;;5099570;28;20401;-68
2023/12/27 11:21:51;;;;;;;17.08;8.57;;;5.60;99.90;;;;;;5104113;28;20040;-69
2023/12/27 11:24:18;;;;;;;17.23;9.05;;;5.60;99.90;;;;;;5103748;28;20100;-69
2023/12/27 11:26:44;;;;;;;15.02;9.50;;;5.60;99.90;;;;;;5101843;28;20040;-69
2023/12/27 11:29:14;;;;;;;17.13;9.73;;;5.50;99.90;;;;;;5133917;27;20059;-68
2023/12/27 11:31:41;;;;;;;15.98;9.48;;;5.50;99.90;;;;;;5131600;27;20063;-69
2023/12/27 11:34:08;;;;;;;23.25;11.05;;;5.60;99.90;;;;;;5103481;27;20039;-68
2023/12/27 11:36:35;;;;;;;18.40;9.30;;;5.60;99.90;;;;;;5097513;27;20058;-68
2023/12/27 11:39:19;;;;;;;17.50;10.00;;;5.60;99.90;;;;;;5100090;27;20042;-69
2023/12/27 11:41:45;;;;;;;16.40;9.45;;;5.50;99.90;;;;;;5101606;27;20032;-68
2023/12/27 11:44:14;;;;;;;16.85;9.98;;;5.60;99.90;;;;;;5132430;27;20096;-68
2023/12/27 11:46:42;;;;;;;19.48;10.63;;;5.50;99.90;;;;;;5103684;27;20096;-69
2023/12/27 11:49:07;;;;;;;12.55;9.85;;;5.60;99.90;;;;;;5098557;27;20545;-68
2023/12/27 11:51:35;;;;;;;14.15;9.85;;;5.60;99.90;;;;;;5097652;27;20174;-68
2023/12/27 11:54:03;;;;;;;17.52;9.93;;;5.60;99.90;;;;;;5099947;27;20048;-68
2023/12/27 11:56:31;;;;;;;14.25;9.82;;;5.50;99.90;;;;;;5101421;27;20216;-68
2023/12/27 11:58:57;;;;;;;14.10;10.27;;;5.60;99.90;;;;;;5135425;27;20548;-69
2023/12/27 12:01:27;;;;;;;14.00;10.35;;;5.60;99.90;;;;;;5101939;27;20032;-68
2023/12/27 12:04:31;;;;;;;16.83;10.60;;;5.60;99.90;;;;;;5099404;28;20040;-68
2023/12/27 12:07:24;;;;;;;15.45;10.60;;;5.60;99.90;;;;;;5091075;27;20363;-68
2023/12/27 12:09:50;;;;;;;16.00;10.75;;;5.60;99.90;;;;;;5096904;27;20047;-68
2023/12/27 12:12:17;;;;;;;17.13;10.88;;;5.70;99.90;;;;;;5133485;27;20494;-68
2023/12/27 12:14:44;;;;;;;15.05;10.73;;;5.60;99.90;;;;;;5132088;27;20086;-69
2023/12/27 12:17:10;;;;;;;17.42;11.05;;;5.60;99.90;;;;;;5099604;27;20032;-68
2023/12/27 12:19:36;;;;;;;14.70;9.90;;;5.60;99.90;;;;;;5133773;27;20055;-68
2023/12/27 12:22:02;;;;;;;15.65;11.27;;;5.70;99.90;;;;;;5101908;27;20462;-68
2023/12/27 12:24:27;;;;;;;15.80;11.55;;;5.70;99.90;;;;;;5101224;27;20039;-68
2023/12/27 12:26:55;;;;;;;15.05;10.88;;;5.60;99.90;;;;;;5099106;28;20513;-68
2023/12/27 12:29:21;;;;;;;18.10;12.45;;;5.70;99.90;;;;;;5099787;28;20051;-68
2023/12/27 12:31:48;;;;;;;15.73;11.75;;;5.80;99.90;;;;;;5135947;27;20047;-68
2023/12/27 12:34:13;;;;;;;18.90;11.55;;;5.70;99.90;;;;;;5099514;27;20036;-68
2023/12/27 12:36:39;;;;;;;16.38;12.93;;;5.80;99.90;;;;;;5099410;28;20043;-68
2023/12/27 12:39:05;;;;;;;20.55;13.00;;;5.80;99.90;;;;;;5137094;27;20101;-68
2023/12/27 12:41:31;;;;;;;16.98;12.70;;;5.80;99.90;;;;;;5098365;28;20042;-68
2023/12/27 12:43:56;;;;;;;20.65;13.60;;;5.90;99.90;;;;;;5100894;27;20036;-69